sensor_id;sensor_type;location;lat;lon;timestamp;P1;durP1;ratioP1;P2;durP2;ratioP2
63157;SDS011;49381;49.338;8.794;2022-07-01T00:01:04;2.03;;;1.00;;
63157;SDS011;49381;49.338;8.794;2022-07-01T00:03:05;5.68;;;1.10;;
63157;SDS011;49381;49.338;8.794;2022-07-01T00:05:07;3.70;;;0.95;;
63157;SDS011;49381;49.338;8.794;2022-07-01T00:07:07;3.05;;;0.75;;
63157;SDS011;49381;49.338;8.794;2022-07-01T00:09:08;2.55;;;0.95;;
63157;SDS011;49381;49.338;8.794;2022-07-01T00:11:08;2.08;;;1.00;;
63157;SDS011;49381;49.338;8.794;2022-07-01T00:13:08;2.05;;;1.00;;
63157;SDS011;49381;49.338;8.794;2022-07-01T00:15:09;1.55;;;0.80;;
63157;SDS011;49381;49.338;8.794;2022-07-01T00:17:09;2.78;;;0.80;;
63157;SDS011;49381;49.338;8.794;2022-07-01T00:19:10;2.15;;;0.70;;
63157;SDS011;49381;49.338;8.794;2022-07-01T00:21:11;1.55;;;0.90;;
63157;SDS011;49381;49.338;8.794;2022-07-01T00:23:12;2.13;;;0.63;;
63157;SDS011;49381;49.338;8.794;2022-07-01T00:25:12;1.85;;;1.00;;
63157;SDS011;49381;49.338;8.794;2022-07-01T00:27:13;3.28;;;0.88;;
63157;SDS011;49381;49.338;8.794;2022-07-01T00:29:13;1.95;;;0.70;;
63157;SDS011;49381;49.338;8.794;2022-07-01T00:31:13;3.13;;;1.27;;
63157;SDS011;49381;49.338;8.794;2022-07-01T00:33:14;1.25;;;0.80;;
63157;SDS011;49381;49.338;8.794;2022-07-01T00:35:14;2.45;;;0.77;;
63157;SDS011;49381;49.338;8.794;2022-07-01T00:37:16;2.10;;;0.65;;
63157;SDS011;49381;49.338;8.794;2022-07-01T00:39:16;2.50;;;0.80;;
63157;SDS011;49381;49.338;8.794;2022-07-01T00:41:16;4.50;;;0.98;;
63157;SDS011;49381;49.338;8.794;2022-07-01T00:43:17;1.40;;;0.80;;
63157;SDS011;49381;49.338;8.794;2022-07-01T00:45:17;1.52;;;1.00;;
63157;SDS011;49381;49.338;8.794;2022-07-01T00:47:17;1.98;;;0.75;;
63157;SDS011;49381;49.338;8.794;2022-07-01T00:49:18;1.60;;;0.85;;
63157;SDS011;49381;49.338;8.794;2022-07-01T00:51:18;2.58;;;1.08;;
63157;SDS011;49381;49.338;8.794;2022-07-01T00:53:20;3.08;;;1.20;;
63157;SDS011;49381;49.338;8.794;2022-07-01T00:55:21;1.65;;;0.98;;
63157;SDS011;49381;49.338;8.794;2022-07-01T00:57:21;2.17;;;1.13;;
63157;SDS011;49381;49.338;8.794;2022-07-01T00:59:22;3.63;;;0.90;;
63157;SDS011;49381;49.338;8.794;2022-07-01T01:01:22;2.40;;;1.30;;
63157;SDS011;49381;49.338;8.794;2022-07-01T01:03:22;1.25;;;0.80;;
63157;SDS011;49381;49.338;8.794;2022-07-01T01:05:23;4.22;;;1.00;;
63157;SDS011;49381;49.338;8.794;2022-07-01T01:07:23;2.22;;;1.20;;
63157;SDS011;49381;49.338;8.794;2022-07-01T01:09:26;2.05;;;1.08;;
63157;SDS011;49381;49.338;8.794;2022-07-01T01:11:27;6.53;;;1.63;;
63157;SDS011;49381;49.338;8.794;2022-07-01T01:13:27;2.03;;;0.88;;
63157;SDS011;49381;49.338;8.794;2022-07-01T01:15:28;2.55;;;0.90;;
63157;SDS011;49381;49.338;8.794;2022-07-01T01:17:29;1.83;;;1.00;;
63157;SDS011;49381;49.338;8.794;2022-07-01T01:19:29;5.15;;;1.08;;
63157;SDS011;49381;49.338;8.794;2022-07-01T01:21:31;3.30;;;1.30;;
63157;SDS011;49381;49.338;8.794;2022-07-01T01:23:31;2.38;;;0.82;;
63157;SDS011;49381;49.338;8.794;2022-07-01T01:25:32;3.22;;;1.10;;
63157;SDS011;49381;49.338;8.794;2022-07-01T01:27:32;2.15;;;0.82;;
63157;SDS011;49381;49.338;8.794;2022-07-01T01:29:34;1.88;;;0.70;;
63157;SDS011;49381;49.338;8.794;2022-07-01T01:31:35;1.20;;;0.70;;
63157;SDS011;49381;49.338;8.794;2022-07-01T01:33:36;3.88;;;0.77;;
63157;SDS011;49381;49.338;8.794;2022-07-01T01:35:36;2.20;;;0.80;;
63157;SDS011;49381;49.338;8.794;2022-07-01T01:37:38;3.47;;;0.90;;
63157;SDS011;49381;49.338;8.794;2022-07-01T01:39:39;2.33;;;1.08;;
63157;SDS011;49381;49.338;8.794;2022-07-01T01:41:39;1.73;;;0.60;;
63157;SDS011;49381;49.338;8.794;2022-07-01T01:43:39;3.10;;;0.90;;
63157;SDS011;49381;49.338;8.794;2022-07-01T01:45:40;0.90;;;0.52;;
63157;SDS011;49381;49.338;8.794;2022-07-01T01:47:40;3.78;;;0.98;;
63157;SDS011;49381;49.338;8.794;2022-07-01T01:49:41;3.10;;;0.77;;
63157;SDS011;49381;49.338;8.794;2022-07-01T01:51:41;1.13;;;0.75;;
63157;SDS011;49381;49.338;8.794;2022-07-01T01:53:43;1.27;;;0.93;;
63157;SDS011;49381;49.338;8.794;2022-07-01T01:55:43;3.25;;;1.17;;
63157;SDS011;49381;49.338;8.794;2022-07-01T01:57:44;2.40;;;0.70;;
63157;SDS011;49381;49.338;8.794;2022-07-01T01:59:44;1.48;;;0.60;;
63157;SDS011;49381;49.338;8.794;2022-07-01T02:01:44;1.77;;;0.75;;
63157;SDS011;49381;49.338;8.794;2022-07-01T02:03:46;1.70;;;1.13;;
63157;SDS011;49381;49.338;8.794;2022-07-01T02:05:47;2.38;;;0.80;;
63157;SDS011;49381;49.338;8.794;2022-07-01T02:07:48;2.28;;;0.80;;
63157;SDS011;49381;49.338;8.794;2022-07-01T02:09:49;1.90;;;0.93;;
63157;SDS011;49381;49.338;8.794;2022-07-01T02:11:50;1.45;;;0.88;;
63157;SDS011;49381;49.338;8.794;2022-07-01T02:13:50;1.40;;;0.70;;
63157;SDS011;49381;49.338;8.794;2022-07-01T02:15:50;1.05;;;0.85;;
63157;SDS011;49381;49.338;8.794;2022-07-01T02:17:51;2.28;;;0.95;;
63157;SDS011;49381;49.338;8.794;2022-07-01T02:19:51;3.17;;;0.70;;
63157;SDS011;49381;49.338;8.794;2022-07-01T02:21:52;4.10;;;1.10;;
63157;SDS011;49381;49.338;8.794;2022-07-01T02:23:52;2.05;;;0.73;;
63157;SDS011;49381;49.338;8.794;2022-07-01T02:25:54;1.20;;;0.60;;
63157;SDS011;49381;49.338;8.794;2022-07-01T02:27:54;2.88;;;0.98;;
63157;SDS011;49381;49.338;8.794;2022-07-01T02:29:54;1.60;;;0.70;;
63157;SDS011;49381;49.338;8.794;2022-07-01T02:31:55;1.23;;;0.95;;
63157;SDS011;49381;49.338;8.794;2022-07-01T02:33:55;2.58;;;0.93;;
63157;SDS011;49381;49.338;8.794;2022-07-01T02:35:55;1.42;;;0.80;;
63157;SDS011;49381;49.338;8.794;2022-07-01T02:37:55;2.78;;;1.00;;
63157;SDS011;49381;49.338;8.794;2022-07-01T02:39:56;2.17;;;1.08;;
63157;SDS011;49381;49.338;8.794;2022-07-01T02:41:57;4.15;;;1.40;;
63157;SDS011;49381;49.338;8.794;2022-07-01T02:43:58;1.63;;;0.88;;
63157;SDS011;49381;49.338;8.794;2022-07-01T02:45:58;1.40;;;0.80;;
63157;SDS011;49381;49.338;8.794;2022-07-01T02:47:58;4.20;;;1.17;;
63157;SDS011;49381;49.338;8.794;2022-07-01T02:49:59;2.65;;;1.05;;
63157;SDS011;49381;49.338;8.794;2022-07-01T02:51:59;3.45;;;1.10;;
63157;SDS011;49381;49.338;8.794;2022-07-01T02:53:59;2.72;;;1.00;;
63157;SDS011;49381;49.338;8.794;2022-07-01T02:56:00;4.43;;;1.42;;
63157;SDS011;49381;49.338;8.794;2022-07-01T02:58:01;1.33;;;0.90;;
63157;SDS011;49381;49.338;8.794;2022-07-01T03:00:02;2.25;;;1.25;;
63157;SDS011;49381;49.338;8.794;2022-07-01T03:02:03;1.80;;;1.20;;
63157;SDS011;49381;49.338;8.794;2022-07-01T03:04:04;2.00;;;0.80;;
63157;SDS011;49381;49.338;8.794;2022-07-01T03:06:04;3.97;;;0.88;;
63157;SDS011;49381;49.338;8.794;2022-07-01T03:08:04;1.20;;;1.00;;
63157;SDS011;49381;49.338;8.794;2022-07-01T03:10:05;1.90;;;1.25;;
63157;SDS011;49381;49.338;8.794;2022-07-01T03:12:07;2.15;;;1.10;;
63157;SDS011;49381;49.338;8.794;2022-07-01T03:14:09;2.67;;;1.45;;
63157;SDS011;49381;49.338;8.794;2022-07-01T03:16:09;2.53;;;1.05;;
63157;SDS011;49381;49.338;8.794;2022-07-01T03:18:10;2.92;;;1.50;;
63157;SDS011;49381;49.338;8.794;2022-07-01T03:20:11;2.70;;;1.05;;
63157;SDS011;49381;49.338;8.794;2022-07-01T03:22:12;3.10;;;1.10;;
63157;SDS011;49381;49.338;8.794;2022-07-01T03:24:12;3.25;;;1.00;;
63157;SDS011;49381;49.338;8.794;2022-07-01T03:26:13;1.55;;;1.15;;
63157;SDS011;49381;49.338;8.794;2022-07-01T03:28:13;1.67;;;1.17;;
63157;SDS011;49381;49.338;8.794;2022-07-01T03:30:15;3.10;;;1.45;;
63157;SDS011;49381;49.338;8.794;2022-07-01T03:32:15;1.88;;;1.38;;
63157;SDS011;49381;49.338;8.794;2022-07-01T03:34:16;1.70;;;1.00;;
63157;SDS011;49381;49.338;8.794;2022-07-01T03:36:16;3.20;;;1.23;;
63157;SDS011;49381;49.338;8.794;2022-07-01T03:38:16;1.83;;;1.20;;
63157;SDS011;49381;49.338;8.794;2022-07-01T03:40:17;3.97;;;1.20;;
63157;SDS011;49381;49.338;8.794;2022-07-01T03:42:17;2.80;;;1.17;;
63157;SDS011;49381;49.338;8.794;2022-07-01T03:44:17;2.28;;;1.40;;
63157;SDS011;49381;49.338;8.794;2022-07-01T03:46:19;3.33;;;1.20;;
63157;SDS011;49381;49.338;8.794;2022-07-01T03:48:19;2.03;;;1.13;;
63157;SDS011;49381;49.338;8.794;2022-07-01T03:50:20;2.33;;;1.38;;
63157;SDS011;49381;49.338;8.794;2022-07-01T03:52:22;3.80;;;1.40;;
63157;SDS011;49381;49.338;8.794;2022-07-01T03:54:22;3.78;;;1.50;;
63157;SDS011;49381;49.338;8.794;2022-07-01T03:56:22;3.17;;;1.40;;
63157;SDS011;49381;49.338;8.794;2022-07-01T03:58:23;2.72;;;1.25;;
63157;SDS011;49381;49.338;8.794;2022-07-01T04:00:23;3.63;;;1.48;;
63157;SDS011;49381;49.338;8.794;2022-07-01T04:02:25;2.67;;;1.15;;
63157;SDS011;49381;49.338;8.794;2022-07-01T04:04:25;2.80;;;1.70;;
63157;SDS011;49381;49.338;8.794;2022-07-01T04:06:27;3.38;;;1.60;;
63157;SDS011;49381;49.338;8.794;2022-07-01T04:08:27;2.50;;;1.40;;
63157;SDS011;49381;49.338;8.794;2022-07-01T04:10:28;2.92;;;1.42;;
63157;SDS011;49381;49.338;8.794;2022-07-01T04:12:29;2.85;;;1.58;;
63157;SDS011;49381;49.338;8.794;2022-07-01T04:14:30;2.47;;;1.50;;
63157;SDS011;49381;49.338;8.794;2022-07-01T04:16:30;3.45;;;1.75;;
63157;SDS011;49381;49.338;8.794;2022-07-01T04:18:32;2.20;;;1.20;;
63157;SDS011;49381;49.338;8.794;2022-07-01T04:20:33;2.70;;;1.60;;
63157;SDS011;49381;49.338;8.794;2022-07-01T04:22:33;2.47;;;1.42;;
63157;SDS011;49381;49.338;8.794;2022-07-01T04:24:34;2.17;;;1.10;;
63157;SDS011;49381;49.338;8.794;2022-07-01T04:26:34;2.92;;;1.67;;
63157;SDS011;49381;49.338;8.794;2022-07-01T04:28:35;1.70;;;1.33;;
63157;SDS011;49381;49.338;8.794;2022-07-01T04:30:35;2.47;;;1.70;;
63157;SDS011;49381;49.338;8.794;2022-07-01T04:32:35;3.13;;;1.45;;
63157;SDS011;49381;49.338;8.794;2022-07-01T04:34:37;2.47;;;1.40;;
63157;SDS011;49381;49.338;8.794;2022-07-01T04:36:37;2.85;;;1.90;;
63157;SDS011;49381;49.338;8.794;2022-07-01T04:38:38;3.53;;;1.85;;
63157;SDS011;49381;49.338;8.794;2022-07-01T04:40:38;3.78;;;1.67;;
63157;SDS011;49381;49.338;8.794;2022-07-01T04:42:39;4.70;;;1.98;;
63157;SDS011;49381;49.338;8.794;2022-07-01T04:44:39;2.00;;;1.55;;
63157;SDS011;49381;49.338;8.794;2022-07-01T04:46:39;5.10;;;1.65;;
63157;SDS011;49381;49.338;8.794;2022-07-01T04:48:40;3.15;;;1.67;;
63157;SDS011;49381;49.338;8.794;2022-07-01T04:50:42;4.25;;;1.92;;
63157;SDS011;49381;49.338;8.794;2022-07-01T04:52:42;3.72;;;1.98;;
63157;SDS011;49381;49.338;8.794;2022-07-01T04:54:42;4.07;;;2.15;;
63157;SDS011;49381;49.338;8.794;2022-07-01T04:56:42;4.28;;;1.98;;
63157;SDS011;49381;49.338;8.794;2022-07-01T04:58:43;3.72;;;2.30;;
63157;SDS011;49381;49.338;8.794;2022-07-01T05:00:43;3.10;;;2.10;;
63157;SDS011;49381;49.338;8.794;2022-07-01T05:02:43;2.63;;;2.05;;
63157;SDS011;49381;49.338;8.794;2022-07-01T05:04:44;5.10;;;2.25;;
63157;SDS011;49381;49.338;8.794;2022-07-01T05:06:45;3.25;;;2.05;;
63157;SDS011;49381;49.338;8.794;2022-07-01T05:08:46;4.15;;;2.35;;
63157;SDS011;49381;49.338;8.794;2022-07-01T05:10:46;4.78;;;1.73;;
63157;SDS011;49381;49.338;8.794;2022-07-01T05:12:46;5.85;;;2.60;;
63157;SDS011;49381;49.338;8.794;2022-07-01T05:14:47;3.08;;;2.00;;
63157;SDS011;49381;49.338;8.794;2022-07-01T05:16:47;3.13;;;2.35;;
63157;SDS011;49381;49.338;8.794;2022-07-01T05:18:47;3.38;;;2.15;;
63157;SDS011;49381;49.338;8.794;2022-07-01T05:20:48;3.58;;;2.42;;
63157;SDS011;49381;49.338;8.794;2022-07-01T05:22:49;3.72;;;2.42;;
63157;SDS011;49381;49.338;8.794;2022-07-01T05:24:50;2.95;;;2.00;;
63157;SDS011;49381;49.338;8.794;2022-07-01T05:26:50;3.92;;;1.80;;
63157;SDS011;49381;49.338;8.794;2022-07-01T05:28:51;5.03;;;2.70;;
63157;SDS011;49381;49.338;8.794;2022-07-01T05:30:52;3.65;;;2.65;;
63157;SDS011;49381;49.338;8.794;2022-07-01T05:32:53;4.13;;;2.67;;
63157;SDS011;49381;49.338;8.794;2022-07-01T05:34:53;4.15;;;2.40;;
63157;SDS011;49381;49.338;8.794;2022-07-01T05:36:53;4.78;;;2.40;;
63157;SDS011;49381;49.338;8.794;2022-07-01T05:38:55;4.53;;;2.75;;
63157;SDS011;49381;49.338;8.794;2022-07-01T05:40:55;3.75;;;2.40;;
63157;SDS011;49381;49.338;8.794;2022-07-01T05:42:56;5.15;;;3.20;;
63157;SDS011;49381;49.338;8.794;2022-07-01T05:44:56;4.05;;;2.67;;
63157;SDS011;49381;49.338;8.794;2022-07-01T05:46:59;7.30;;;3.00;;
63157;SDS011;49381;49.338;8.794;2022-07-01T05:49:00;4.93;;;3.10;;
63157;SDS011;49381;49.338;8.794;2022-07-01T05:51:00;6.07;;;3.25;;
63157;SDS011;49381;49.338;8.794;2022-07-01T05:53:00;5.55;;;2.90;;
63157;SDS011;49381;49.338;8.794;2022-07-01T05:55:02;6.63;;;3.25;;
63157;SDS011;49381;49.338;8.794;2022-07-01T05:57:03;7.00;;;3.30;;
63157;SDS011;49381;49.338;8.794;2022-07-01T05:59:04;5.78;;;3.25;;
63157;SDS011;49381;49.338;8.794;2022-07-01T06:01:05;6.82;;;3.35;;
63157;SDS011;49381;49.338;8.794;2022-07-01T06:03:05;7.60;;;3.35;;
63157;SDS011;49381;49.338;8.794;2022-07-01T06:05:05;5.30;;;3.15;;
63157;SDS011;49381;49.338;8.794;2022-07-01T06:07:06;5.28;;;3.45;;
63157;SDS011;49381;49.338;8.794;2022-07-01T06:09:06;6.22;;;3.50;;
63157;SDS011;49381;49.338;8.794;2022-07-01T06:11:08;5.18;;;3.40;;
63157;SDS011;49381;49.338;8.794;2022-07-01T06:13:08;6.50;;;3.35;;
63157;SDS011;49381;49.338;8.794;2022-07-01T06:15:09;10.45;;;3.90;;
63157;SDS011;49381;49.338;8.794;2022-07-01T06:17:11;5.20;;;3.67;;
63157;SDS011;49381;49.338;8.794;2022-07-01T06:19:12;4.13;;;2.75;;
63157;SDS011;49381;49.338;8.794;2022-07-01T06:21:12;7.25;;;3.63;;
63157;SDS011;49381;49.338;8.794;2022-07-01T06:23:12;5.63;;;2.85;;
63157;SDS011;49381;49.338;8.794;2022-07-01T06:25:13;6.20;;;3.42;;
63157;SDS011;49381;49.338;8.794;2022-07-01T06:27:14;6.70;;;2.90;;
63157;SDS011;49381;49.338;8.794;2022-07-01T06:29:15;6.50;;;3.20;;
63157;SDS011;49381;49.338;8.794;2022-07-01T06:31:15;4.47;;;3.10;;
63157;SDS011;49381;49.338;8.794;2022-07-01T06:33:16;4.43;;;2.78;;
63157;SDS011;49381;49.338;8.794;2022-07-01T06:35:16;5.10;;;2.42;;
63157;SDS011;49381;49.338;8.794;2022-07-01T06:37:16;7.00;;;3.25;;
63157;SDS011;49381;49.338;8.794;2022-07-01T06:39:17;6.40;;;3.53;;
63157;SDS011;49381;49.338;8.794;2022-07-01T06:41:17;4.70;;;2.70;;
63157;SDS011;49381;49.338;8.794;2022-07-01T06:43:19;6.85;;;3.60;;
63157;SDS011;49381;49.338;8.794;2022-07-01T06:45:20;5.88;;;3.40;;
63157;SDS011;49381;49.338;8.794;2022-07-01T06:47:20;7.75;;;3.78;;
63157;SDS011;49381;49.338;8.794;2022-07-01T06:49:20;8.32;;;3.42;;
63157;SDS011;49381;49.338;8.794;2022-07-01T06:51:21;5.65;;;2.90;;
63157;SDS011;49381;49.338;8.794;2022-07-01T06:53:22;5.50;;;2.90;;
63157;SDS011;49381;49.338;8.794;2022-07-01T06:55:22;5.82;;;3.40;;
63157;SDS011;49381;49.338;8.794;2022-07-01T06:57:22;5.90;;;2.67;;
63157;SDS011;49381;49.338;8.794;2022-07-01T06:59:24;4.30;;;3.13;;
63157;SDS011;49381;49.338;8.794;2022-07-01T07:01:24;8.73;;;3.55;;
63157;SDS011;49381;49.338;8.794;2022-07-01T07:03:25;7.10;;;3.03;;
63157;SDS011;49381;49.338;8.794;2022-07-01T07:05:25;5.28;;;3.38;;
63157;SDS011;49381;49.338;8.794;2022-07-01T07:07:25;4.72;;;2.92;;
63157;SDS011;49381;49.338;8.794;2022-07-01T07:09:26;4.72;;;3.08;;
63157;SDS011;49381;49.338;8.794;2022-07-01T07:11:26;3.50;;;2.75;;
63157;SDS011;49381;49.338;8.794;2022-07-01T07:13:27;6.45;;;2.72;;
63157;SDS011;49381;49.338;8.794;2022-07-01T07:15:28;6.60;;;2.42;;
63157;SDS011;49381;49.338;8.794;2022-07-01T07:17:28;3.60;;;2.45;;
63157;SDS011;49381;49.338;8.794;2022-07-01T07:19:29;5.85;;;2.90;;
63157;SDS011;49381;49.338;8.794;2022-07-01T07:21:29;5.50;;;2.80;;
63157;SDS011;49381;49.338;8.794;2022-07-01T07:23:30;4.55;;;3.15;;
63157;SDS011;49381;49.338;8.794;2022-07-01T07:25:30;5.13;;;2.95;;
63157;SDS011;49381;49.338;8.794;2022-07-01T07:27:30;5.80;;;3.00;;
63157;SDS011;49381;49.338;8.794;2022-07-01T07:29:31;5.18;;;3.40;;
63157;SDS011;49381;49.338;8.794;2022-07-01T07:31:32;5.25;;;3.20;;
63157;SDS011;49381;49.338;8.794;2022-07-01T07:33:33;6.00;;;3.30;;
63157;SDS011;49381;49.338;8.794;2022-07-01T07:35:33;5.78;;;3.38;;
63157;SDS011;49381;49.338;8.794;2022-07-01T07:37:34;3.85;;;3.00;;
63157;SDS011;49381;49.338;8.794;2022-07-01T07:39:34;6.20;;;3.20;;
63157;SDS011;49381;49.338;8.794;2022-07-01T07:41:34;5.72;;;3.30;;
63157;SDS011;49381;49.338;8.794;2022-07-01T07:43:35;4.93;;;3.05;;
63157;SDS011;49381;49.338;8.794;2022-07-01T07:45:35;3.35;;;2.60;;
63157;SDS011;49381;49.338;8.794;2022-07-01T07:47:37;5.22;;;3.30;;
63157;SDS011;49381;49.338;8.794;2022-07-01T07:49:38;6.05;;;3.05;;
63157;SDS011;49381;49.338;8.794;2022-07-01T07:51:38;5.90;;;2.90;;
63157;SDS011;49381;49.338;8.794;2022-07-01T07:53:38;4.93;;;2.80;;
63157;SDS011;49381;49.338;8.794;2022-07-01T07:55:38;4.80;;;2.50;;
63157;SDS011;49381;49.338;8.794;2022-07-01T07:57:39;3.55;;;2.60;;
63157;SDS011;49381;49.338;8.794;2022-07-01T07:59:40;4.30;;;2.40;;
63157;SDS011;49381;49.338;8.794;2022-07-01T08:01:41;4.57;;;2.85;;
63157;SDS011;49381;49.338;8.794;2022-07-01T08:03:42;4.13;;;2.47;;
63157;SDS011;49381;49.338;8.794;2022-07-01T08:05:43;4.18;;;2.40;;
63157;SDS011;49381;49.338;8.794;2022-07-01T08:07:43;4.15;;;2.45;;
63157;SDS011;49381;49.338;8.794;2022-07-01T08:09:43;4.97;;;2.80;;
63157;SDS011;49381;49.338;8.794;2022-07-01T08:11:44;3.50;;;2.45;;
63157;SDS011;49381;49.338;8.794;2022-07-01T08:13:44;4.18;;;2.90;;
63157;SDS011;49381;49.338;8.794;2022-07-01T08:15:44;3.85;;;2.83;;
63157;SDS011;49381;49.338;8.794;2022-07-01T08:17:45;4.07;;;3.05;;
63157;SDS011;49381;49.338;8.794;2022-07-01T08:19:46;2.88;;;2.45;;
63157;SDS011;49381;49.338;8.794;2022-07-01T08:21:47;5.82;;;2.92;;
63157;SDS011;49381;49.338;8.794;2022-07-01T08:23:47;4.40;;;2.95;;
63157;SDS011;49381;49.338;8.794;2022-07-01T08:25:48;4.15;;;2.78;;
63157;SDS011;49381;49.338;8.794;2022-07-01T08:27:49;5.25;;;3.60;;
63157;SDS011;49381;49.338;8.794;2022-07-01T08:29:49;5.03;;;3.17;;
63157;SDS011;49381;49.338;8.794;2022-07-01T08:31:50;4.53;;;3.72;;
63157;SDS011;49381;49.338;8.794;2022-07-01T08:33:50;4.75;;;3.38;;
63157;SDS011;49381;49.338;8.794;2022-07-01T08:35:51;3.72;;;2.78;;
63157;SDS011;49381;49.338;8.794;2022-07-01T08:37:52;4.57;;;3.08;;
63157;SDS011;49381;49.338;8.794;2022-07-01T08:39:52;4.45;;;2.78;;
63157;SDS011;49381;49.338;8.794;2022-07-01T08:41:52;5.70;;;3.83;;
63157;SDS011;49381;49.338;8.794;2022-07-01T08:43:53;4.38;;;3.42;;
63157;SDS011;49381;49.338;8.794;2022-07-01T08:45:53;5.78;;;3.55;;
63157;SDS011;49381;49.338;8.794;2022-07-01T08:47:54;5.35;;;4.05;;
63157;SDS011;49381;49.338;8.794;2022-07-01T08:49:58;4.22;;;3.60;;
63157;SDS011;49381;49.338;8.794;2022-07-01T08:52:00;6.30;;;4.38;;
63157;SDS011;49381;49.338;8.794;2022-07-01T08:54:01;6.25;;;4.13;;
63157;SDS011;49381;49.338;8.794;2022-07-01T08:56:01;5.93;;;4.63;;
63157;SDS011;49381;49.338;8.794;2022-07-01T08:58:02;6.68;;;4.68;;
63157;SDS011;49381;49.338;8.794;2022-07-01T09:00:03;7.05;;;4.28;;
63157;SDS011;49381;49.338;8.794;2022-07-01T09:02:04;6.63;;;3.97;;
63157;SDS011;49381;49.338;8.794;2022-07-01T09:04:12;6.90;;;4.00;;
63157;SDS011;49381;49.338;8.794;2022-07-01T09:06:16;7.90;;;3.72;;
63157;SDS011;49381;49.338;8.794;2022-07-01T09:08:20;5.10;;;4.10;;
63157;SDS011;49381;49.338;8.794;2022-07-01T09:10:27;5.93;;;3.78;;
63157;SDS011;49381;49.338;8.794;2022-07-01T09:12:37;5.78;;;3.63;;
63157;SDS011;49381;49.338;8.794;2022-07-01T09:14:38;4.75;;;3.10;;
63157;SDS011;49381;49.338;8.794;2022-07-01T09:16:39;5.85;;;3.75;;
63157;SDS011;49381;49.338;8.794;2022-07-01T09:18:40;7.95;;;5.43;;
63157;SDS011;49381;49.338;8.794;2022-07-01T09:20:41;6.57;;;4.43;;
63157;SDS011;49381;49.338;8.794;2022-07-01T09:22:56;6.15;;;4.30;;
63157;SDS011;49381;49.338;8.794;2022-07-01T09:24:58;5.32;;;3.65;;
63157;SDS011;49381;49.338;8.794;2022-07-01T09:26:59;6.07;;;3.33;;
63157;SDS011;49381;49.338;8.794;2022-07-01T09:29:00;5.15;;;3.47;;
63157;SDS011;49381;49.338;8.794;2022-07-01T09:31:00;5.57;;;3.75;;
63157;SDS011;49381;49.338;8.794;2022-07-01T09:33:04;6.60;;;3.67;;
63157;SDS011;49381;49.338;8.794;2022-07-01T09:35:08;8.45;;;4.10;;
63157;SDS011;49381;49.338;8.794;2022-07-01T09:37:10;3.60;;;2.97;;
63157;SDS011;49381;49.338;8.794;2022-07-01T09:39:11;4.65;;;3.30;;
63157;SDS011;49381;49.338;8.794;2022-07-01T09:41:13;4.50;;;2.97;;
63157;SDS011;49381;49.338;8.794;2022-07-01T09:43:14;5.13;;;3.58;;
63157;SDS011;49381;49.338;8.794;2022-07-01T09:45:15;4.70;;;3.22;;
63157;SDS011;49381;49.338;8.794;2022-07-01T09:47:16;5.20;;;2.78;;
63157;SDS011;49381;49.338;8.794;2022-07-01T09:49:16;4.22;;;2.90;;
63157;SDS011;49381;49.338;8.794;2022-07-01T09:51:17;4.38;;;3.35;;
63157;SDS011;49381;49.338;8.794;2022-07-01T09:53:17;5.38;;;3.22;;
63157;SDS011;49381;49.338;8.794;2022-07-01T09:55:18;5.35;;;3.17;;
63157;SDS011;49381;49.338;8.794;2022-07-01T09:57:20;4.70;;;3.08;;
63157;SDS011;49381;49.338;8.794;2022-07-01T09:59:21;4.65;;;3.45;;
63157;SDS011;49381;49.338;8.794;2022-07-01T10:01:21;6.35;;;2.95;;
63157;SDS011;49381;49.338;8.794;2022-07-01T10:03:23;4.65;;;3.08;;
63157;SDS011;49381;49.338;8.794;2022-07-01T10:05:26;4.38;;;3.28;;
63157;SDS011;49381;49.338;8.794;2022-07-01T10:07:30;6.45;;;3.33;;
63157;SDS011;49381;49.338;8.794;2022-07-01T10:09:57;4.03;;;2.88;;
63157;SDS011;49381;49.338;8.794;2022-07-01T10:14:31;3.17;;;2.55;;
63157;SDS011;49381;49.338;8.794;2022-07-01T10:16:42;2.40;;;2.15;;
63157;SDS011;49381;49.338;8.794;2022-07-01T10:18:45;5.60;;;2.97;;
63157;SDS011;49381;49.338;8.794;2022-07-01T10:20:46;3.90;;;2.70;;
63157;SDS011;49381;49.338;8.794;2022-07-01T10:22:47;6.25;;;2.70;;
63157;SDS011;49381;49.338;8.794;2022-07-01T10:24:47;2.72;;;1.88;;
63157;SDS011;49381;49.338;8.794;2022-07-01T10:26:47;3.30;;;2.22;;
63157;SDS011;49381;49.338;8.794;2022-07-01T10:28:49;3.70;;;2.22;;
63157;SDS011;49381;49.338;8.794;2022-07-01T10:30:51;2.90;;;2.17;;
63157;SDS011;49381;49.338;8.794;2022-07-01T10:32:52;5.10;;;2.50;;
63157;SDS011;49381;49.338;8.794;2022-07-01T10:35:02;3.60;;;2.20;;
63157;SDS011;49381;49.338;8.794;2022-07-01T10:37:04;2.83;;;2.10;;
63157;SDS011;49381;49.338;8.794;2022-07-01T10:39:09;5.97;;;2.13;;
63157;SDS011;49381;49.338;8.794;2022-07-01T10:41:22;5.28;;;2.13;;
63157;SDS011;49381;49.338;8.794;2022-07-01T10:43:31;3.80;;;1.98;;
63157;SDS011;49381;49.338;8.794;2022-07-01T10:45:41;3.42;;;1.90;;
63157;SDS011;49381;49.338;8.794;2022-07-01T10:47:42;3.58;;;2.20;;
63157;SDS011;49381;49.338;8.794;2022-07-01T10:49:53;2.03;;;1.48;;
63157;SDS011;49381;49.338;8.794;2022-07-01T10:51:56;3.55;;;1.92;;
63157;SDS011;49381;49.338;8.794;2022-07-01T10:53:57;4.15;;;1.73;;
63157;SDS011;49381;49.338;8.794;2022-07-01T10:55:58;3.78;;;2.22;;
63157;SDS011;49381;49.338;8.794;2022-07-01T10:57:58;2.80;;;1.70;;
63157;SDS011;49381;49.338;8.794;2022-07-01T11:02:27;6.95;;;2.20;;
63157;SDS011;49381;49.338;8.794;2022-07-01T11:04:36;3.83;;;2.00;;
63157;SDS011;49381;49.338;8.794;2022-07-01T11:06:36;3.25;;;2.10;;
63157;SDS011;49381;49.338;8.794;2022-07-01T11:08:39;3.83;;;1.90;;
63157;SDS011;49381;49.338;8.794;2022-07-01T11:10:40;5.55;;;2.03;;
63157;SDS011;49381;49.338;8.794;2022-07-01T11:12:41;5.07;;;2.00;;
63157;SDS011;49381;49.338;8.794;2022-07-01T11:14:42;4.07;;;1.65;;
63157;SDS011;49381;49.338;8.794;2022-07-01T11:16:43;1.60;;;1.27;;
63157;SDS011;49381;49.338;8.794;2022-07-01T11:18:45;5.95;;;1.83;;
63157;SDS011;49381;49.338;8.794;2022-07-01T11:20:46;1.95;;;1.50;;
63157;SDS011;49381;49.338;8.794;2022-07-01T11:22:46;4.45;;;1.52;;
63157;SDS011;49381;49.338;8.794;2022-07-01T11:24:46;3.03;;;1.58;;
63157;SDS011;49381;49.338;8.794;2022-07-01T11:26:52;1.95;;;1.48;;
63157;SDS011;49381;49.338;8.794;2022-07-01T11:28:55;3.03;;;1.88;;
63157;SDS011;49381;49.338;8.794;2022-07-01T11:30:58;2.97;;;1.60;;
63157;SDS011;49381;49.338;8.794;2022-07-01T11:32:59;4.03;;;1.70;;
63157;SDS011;49381;49.338;8.794;2022-07-01T11:35:01;4.80;;;1.58;;
63157;SDS011;49381;49.338;8.794;2022-07-01T11:37:08;4.85;;;2.30;;
63157;SDS011;49381;49.338;8.794;2022-07-01T11:39:09;6.78;;;2.40;;
63157;SDS011;49381;49.338;8.794;2022-07-01T11:41:17;4.75;;;1.85;;
63157;SDS011;49381;49.338;8.794;2022-07-01T11:43:22;4.57;;;2.58;;
63157;SDS011;49381;49.338;8.794;2022-07-01T11:45:25;1.77;;;1.60;;
63157;SDS011;49381;49.338;8.794;2022-07-01T11:47:26;5.38;;;1.88;;
63157;SDS011;49381;49.338;8.794;2022-07-01T11:49:26;3.70;;;1.73;;
63157;SDS011;49381;49.338;8.794;2022-07-01T11:51:28;3.45;;;2.35;;
63157;SDS011;49381;49.338;8.794;2022-07-01T11:53:28;3.85;;;1.90;;
63157;SDS011;49381;49.338;8.794;2022-07-01T11:55:29;3.03;;;2.00;;
63157;SDS011;49381;49.338;8.794;2022-07-01T11:57:30;3.22;;;2.15;;
63157;SDS011;49381;49.338;8.794;2022-07-01T11:59:31;3.25;;;1.80;;
63157;SDS011;49381;49.338;8.794;2022-07-01T12:01:31;5.22;;;1.80;;
63157;SDS011;49381;49.338;8.794;2022-07-01T12:03:33;4.43;;;1.95;;
63157;SDS011;49381;49.338;8.794;2022-07-01T12:05:34;2.47;;;1.40;;
63157;SDS011;49381;49.338;8.794;2022-07-01T12:07:36;3.38;;;1.60;;
63157;SDS011;49381;49.338;8.794;2022-07-01T12:09:36;2.65;;;1.38;;
63157;SDS011;49381;49.338;8.794;2022-07-01T12:11:37;3.97;;;1.80;;
63157;SDS011;49381;49.338;8.794;2022-07-01T12:13:37;2.45;;;1.52;;
63157;SDS011;49381;49.338;8.794;2022-07-01T12:15:38;4.25;;;2.10;;